Time;durP1;ratioP1;P1;durP2;ratioP2;P2;SDS_P1;SDS_P2;PMS_P1;PMS_P2;Temp;Humidity;BMP_temperature;BMP_pressure;BME280_temperature;BME280_humidity;BME280_pressure;Samples;Min_cycle;Max_cycle;Signal;HPM_P1;HPM_P2
2021/09/12 00:01:56;;;;;;;4.97;4.57;;;;;;;17.69;75.02;100645.53;5001855;28;20421;-84
2021/09/12 00:04:21;;;;;;;5.97;4.80;;;;;;;17.67;74.94;100650.50;4992908;28;20428;-83
2021/09/12 00:06:47;;;;;;;4.85;4.57;;;;;;;17.55;75.49;100654.41;4994375;28;20468;-84
2021/09/12 00:09:13;;;;;;;4.68;4.28;;;;;;;17.48;75.70;100658.56;4991165;28;20409;-84
2021/09/12 00:11:38;;;;;;;5.30;4.90;;;;;;;17.45;75.85;100657.19;5006536;28;20397;-84
2021/09/12 00:14:03;;;;;;;4.43;4.13;;;;;;;17.42;76.10;100654.22;5017138;28;20396;-83
2021/09/12 00:16:29;;;;;;;4.53;3.73;;;;;;;17.40;76.35;100651.75;5000419;28;20912;-83
2021/09/12 00:18:54;;;;;;;4.80;4.40;;;;;;;17.41;75.98;100645.19;4992745;28;20485;-84
2021/09/12 00:21:19;;;;;;;6.23;4.70;;;;;;;17.39;76.00;100655.59;4996635;28;20451;-84
2021/09/12 00:23:44;;;;;;;4.80;4.40;;;;;;;17.42;75.78;100648.75;5002933;28;20827;-84
2021/09/12 00:26:10;;;;;;;5.43;4.47;;;;;;;17.42;75.62;100635.84;4996002;28;20457;-84
2021/09/12 00:28:35;;;;;;;6.38;4.90;;;;;;;17.45;75.54;100638.00;5012085;28;20440;-84
2021/09/12 00:31:00;;;;;;;5.63;5.13;;;;;;;17.46;75.34;100639.66;5004262;28;20414;-84
2021/09/12 00:33:30;;;;;;;6.73;4.70;;;;;;;17.47;75.24;100641.31;4992733;28;20414;-84
2021/09/12 00:35:56;;;;;;;5.25;4.65;;;;;;;17.47;75.18;100637.75;4991914;28;20980;-84
2021/09/12 00:38:21;;;;;;;4.87;4.47;;;;;;;17.46;75.03;100645.13;5002255;28;20497;-82
2021/09/12 00:40:46;;;;;;;4.60;4.30;;;;;;;17.46;75.15;100647.88;5016515;28;20409;-84
2021/09/12 00:43:11;;;;;;;5.90;4.63;;;;;;;17.45;75.00;100640.75;5001887;28;20409;-81
2021/09/12 00:45:37;;;;;;;5.27;4.80;;;;;;;17.43;75.08;100642.16;5012852;28;20406;-81
2021/09/12 00:48:02;;;;;;;4.60;4.20;;;;;;;17.39;75.26;100633.69;5008608;28;20893;-83
2021/09/12 00:50:27;;;;;;;4.77;4.43;;;;;;;17.34;75.44;100628.25;5006261;28;20398;-83
2021/09/12 00:53:00;;;;;;;5.10;4.53;;;;;;;17.29;75.74;100635.69;5013812;28;20498;-84
2021/09/12 00:55:26;;;;;;;4.88;4.53;;;;;;;17.28;75.81;100628.56;5009484;28;20917;-84
2021/09/12 00:57:52;;;;;;;5.68;4.75;;;;;;;17.30;75.54;100629.91;5008382;28;20446;-81
2021/09/12 01:00:17;;;;;;;4.90;4.53;;;;;;;17.29;75.35;100631.00;5001343;28;20397;-81
2021/09/12 01:02:43;;;;;;;6.87;4.40;;;;;;;17.30;74.99;100634.56;5007041;28;20729;-81
2021/09/12 01:05:09;;;;;;;4.73;4.27;;;;;;;17.29;73.71;100632.97;5006960;28;20425;-80
2021/09/12 01:07:34;;;;;;;4.93;4.35;;;;;;;17.25;73.15;100629.16;5014185;28;20388;-83
2021/09/12 01:10:03;;;;;;;7.03;4.43;;;;;;;17.22;73.24;100629.72;5011218;28;20399;-83
2021/09/12 01:12:30;;;;;;;6.85;4.60;;;;;;;17.19;73.50;100630.28;4996206;28;20469;-84
2021/09/12 01:14:55;;;;;;;5.95;4.30;;;;;;;17.15;73.23;100627.28;4995272;28;20418;-83
2021/09/12 01:17:31;;;;;;;4.10;3.70;;;;;;;17.13;73.23;100624.81;4996275;28;20409;-84
2021/09/12 01:19:57;;;;;;;5.43;4.30;;;;;;;17.12;73.35;100627.88;5000616;28;20491;-84
2021/09/12 01:22:22;;;;;;;6.28;4.43;;;;;;;17.14;73.64;100622.91;5015064;28;20434;-84
2021/09/12 01:24:48;;;;;;;6.25;3.80;;;;;;;17.12;73.51;100625.91;5000060;28;20413;-83
2021/09/12 01:27:13;;;;;;;4.40;3.57;;;;;;;17.11;73.56;100627.03;5001943;28;20837;-84
2021/09/12 01:29:39;;;;;;;4.28;3.97;;;;;;;17.10;73.34;100622.66;5009859;28;20436;-83
2021/09/12 01:32:04;;;;;;;3.90;3.70;;;;;;;17.09;72.85;100618.28;4997792;28;20961;-83
2021/09/12 01:34:30;;;;;;;5.93;4.07;;;;;;;17.06;72.27;100616.09;4995481;28;20418;-83
2021/09/12 01:36:55;;;;;;;7.10;4.03;;;;;;;17.01;71.88;100610.69;5010360;28;20397;-83
2021/09/12 01:39:20;;;;;;;5.73;3.77;;;;;;;16.96;71.41;100612.59;5003112;28;20465;-83
2021/09/12 01:41:46;;;;;;;4.20;3.90;;;;;;;16.88;71.34;100611.31;5000364;28;20405;-83
2021/09/12 01:44:11;;;;;;;4.97;3.77;;;;;;;16.84;71.19;100621.19;5007833;28;20459;-84
2021/09/12 01:46:45;;;;;;;6.07;3.70;;;;;;;16.79;71.24;100625.88;5000947;28;20491;-84
2021/09/12 01:49:11;;;;;;;3.70;3.50;;;;;;;16.78;71.20;100618.75;5010502;28;20457;-84
2021/09/12 01:51:37;;;;;;;5.38;4.10;;;;;;;16.74;71.37;100623.16;5006382;28;20823;-83
2021/09/12 01:54:02;;;;;;;5.43;4.10;;;;;;;16.72;71.58;100623.44;5008590;28;20436;-83
2021/09/12 01:56:27;;;;;;;4.47;3.70;;;;;;;16.68;71.77;100616.88;5000263;28;20489;-83
2021/09/12 01:58:53;;;;;;;4.00;3.70;;;;;;;16.67;71.76;100620.72;4995486;28;20422;-83
2021/09/12 02:01:18;;;;;;;4.85;4.47;;;;;;;16.65;71.75;100613.88;5002044;28;20418;-84
2021/09/12 02:03:45;;;;;;;4.00;3.73;;;;;;;16.62;71.64;100612.53;5005349;28;20513;-83
2021/09/12 02:06:10;;;;;;;4.97;3.83;;;;;;;16.59;71.53;100616.66;4994599;28;20449;-83
2021/09/12 02:08:35;;;;;;;5.53;3.57;;;;;;;16.57;70.76;100618.03;4993500;28;20490;-81
2021/09/12 02:11:01;;;;;;;3.87;3.30;;;;;;;16.52;70.75;100616.13;5007746;28;20905;-81
2021/09/12 02:13:26;;;;;;;4.20;3.90;;;;;;;16.46;70.61;100609.03;4997463;28;20457;-83
2021/09/12 02:15:51;;;;;;;5.60;3.70;;;;;;;16.39;70.92;100605.78;5006569;28;20993;-83
2021/09/12 02:18:16;;;;;;;4.70;4.30;;;;;;;16.36;71.25;100608.25;5001293;28;20446;-83
2021/09/12 02:20:42;;;;;;;5.53;4.67;;;;;;;16.32;71.85;100605.25;5004658;28;20841;-83
2021/09/12 02:23:07;;;;;;;4.20;3.80;;;;;;;16.28;72.27;100600.59;4994261;28;20399;-83
2021/09/12 02:25:34;;;;;;;4.80;4.20;;;;;;;16.29;72.13;100597.59;5003545;28;20409;-83
2021/09/12 02:28:00;;;;;;;5.32;3.88;;;;;;;16.33;71.92;100604.16;4998268;28;20555;-84
2021/09/12 02:30:26;;;;;;;5.10;4.30;;;;;;;16.31;72.29;100595.41;5010074;28;20400;-83
2021/09/12 02:32:51;;;;;;;3.90;3.53;;;;;;;16.33;72.10;100601.44;4998948;28;20389;-83
2021/09/12 02:35:16;;;;;;;3.50;3.30;;;;;;;16.33;72.04;100595.13;5003493;28;20423;-83
2021/09/12 02:37:41;;;;;;;5.27;4.23;;;;;;;16.33;72.43;100595.13;5015239;28;20823;-84
2021/09/12 02:40:07;;;;;;;4.10;3.70;;;;;;;16.31;72.35;100603.59;5008291;28;20502;-83
2021/09/12 02:42:32;;;;;;;4.43;4.13;;;;;;;16.33;71.97;100606.91;4994021;28;20394;-83
2021/09/12 02:44:58;;;;;;;3.53;3.20;;;;;;;16.33;71.51;100598.69;5007152;28;20455;-83
2021/09/12 02:47:23;;;;;;;6.47;3.45;;;;;;;16.30;71.73;100596.50;5000674;28;20437;-83
2021/09/12 02:49:48;;;;;;;4.57;3.80;;;;;;;16.23;72.72;100600.63;5008412;28;20401;-83
2021/09/12 02:52:13;;;;;;;3.70;3.50;;;;;;;16.26;73.07;100608.28;4997660;28;20733;-84
2021/09/12 02:54:39;;;;;;;4.47;3.67;;;;;;;16.31;73.25;100606.34;5004030;28;20410;-83
2021/09/12 02:57:04;;;;;;;4.40;4.00;;;;;;;16.34;73.22;100605.78;4994418;28;20461;-83
2021/09/12 02:59:30;;;;;;;4.82;3.67;;;;;;;16.36;73.01;100616.44;4993773;28;20402;-83
2021/09/12 03:01:55;;;;;;;4.60;4.27;;;;;;;16.34;72.83;100611.25;4996465;28;20393;-83
2021/09/12 03:04:20;;;;;;;3.87;3.53;;;;;;;16.34;72.96;100613.97;5011115;28;20832;-83
2021/09/12 03:06:45;;;;;;;4.80;4.33;;;;;;;16.35;72.92;100606.59;5001763;28;20413;-83
2021/09/12 03:09:11;;;;;;;4.17;3.77;;;;;;;16.34;72.71;100611.25;4993595;28;20399;-83
2021/09/12 03:11:36;;;;;;;6.20;4.37;;;;;;;16.33;72.66;100606.06;4995385;28;20406;-83
2021/09/12 03:14:02;;;;;;;3.90;3.60;;;;;;;16.33;72.38;100606.91;4993070;28;20406;-83
2021/09/12 03:16:27;;;;;;;4.40;4.03;;;;;;;16.30;72.37;100603.91;4996619;28;20436;-83
2021/09/12 03:18:52;;;;;;;4.20;3.90;;;;;;;16.24;72.46;100603.06;5021393;28;20459;-84
2021/09/12 03:21:18;;;;;;;4.97;3.47;;;;;;;16.21;72.63;100598.16;4994215;28;20406;-83
2021/09/12 03:23:44;;;;;;;3.35;2.97;;;;;;;16.21;72.14;100594.59;5000428;28;20414;-83
2021/09/12 03:26:09;;;;;;;5.78;3.50;;;;;;;16.19;71.93;100596.81;4997402;28;20420;-83
2021/09/12 03:28:35;;;;;;;4.27;3.80;;;;;;;16.15;71.91;100599.28;5015882;28;20750;-83
2021/09/12 03:31:02;;;;;;;3.50;3.17;;;;;;;16.14;72.23;100596.81;4996744;28;20449;-83
2021/09/12 03:33:27;;;;;;;4.78;3.65;;;;;;;16.13;72.11;100600.66;5007449;28;20426;-83
2021/09/12 03:35:52;;;;;;;5.07;3.23;;;;;;;16.11;71.60;100598.19;4999227;28;20492;-83
2021/09/12 03:38:18;;;;;;;6.53;2.80;;;;;;;16.08;71.19;100598.75;4992431;28;20402;-83
2021/09/12 03:40:43;;;;;;;3.63;3.17;;;;;;;16.06;70.91;100596.31;4992658;28;20402;-83
2021/09/12 03:43:08;;;;;;;9.10;3.70;;;;;;;16.03;70.29;100594.13;5008891;28;20439;-83
2021/09/12 03:45:34;;;;;;;6.20;3.00;;;;;;;15.98;69.70;100599.59;4993451;28;20449;-83
2021/09/12 03:47:59;;;;;;;5.40;3.20;;;;;;;15.92;69.37;100591.69;5000313;28;20969;-83
2021/09/12 03:50:24;;;;;;;3.72;3.42;;;;;;;15.88;69.52;100598.78;4992686;28;20398;-84
2021/09/12 03:52:50;;;;;;;4.20;3.10;;;;;;;15.84;69.46;100595.78;5019780;28;20747;-83
2021/09/12 03:55:15;;;;;;;3.60;3.30;;;;;;;15.79;69.60;100586.78;5022217;28;20422;-83
2021/09/12 03:57:41;;;;;;;3.60;3.30;;;;;;;15.75;69.94;100594.72;4990395;28;20419;-84
2021/09/12 04:00:08;;;;;;;7.23;3.30;;;;;;;15.68;69.94;100588.72;5001127;28;20433;-83
2021/09/12 04:02:34;;;;;;;5.43;3.00;;;;;;;15.64;69.90;100593.13;4995383;28;20465;-84
2021/09/12 04:04:59;;;;;;;5.20;3.60;;;;;;;15.64;69.66;100597.75;4990803;28;20481;-83
2021/09/12 04:07:25;;;;;;;4.30;3.20;;;;;;;15.57;69.93;100600.78;5001649;28;20413;-83
2021/09/12 04:09:50;;;;;;;7.23;3.83;;;;;;;15.48;70.50;100596.94;4999510;28;20403;-83
2021/09/12 04:12:15;;;;;;;4.80;4.30;;;;;;;15.41;70.76;100588.97;4991484;28;20411;-83
2021/09/12 04:14:41;;;;;;;7.40;5.63;;;;;;;15.39;70.94;100593.06;4992293;28;20931;-83
2021/09/12 04:17:06;;;;;;;6.00;5.10;;;;;;;15.39;71.45;100591.16;4990530;28;20457;-83
2021/09/12 04:19:31;;;;;;;10.97;8.13;;;;;;;15.43;71.30;100592.28;4992688;28;20723;-83
2021/09/12 04:21:56;;;;;;;8.75;6.88;;;;;;;15.43;71.30;100592.28;4993439;28;20410;-83
2021/09/12 04:24:23;;;;;;;7.20;5.53;;;;;;;15.46;71.65;100599.09;4993607;28;20407;-83
2021/09/12 04:26:48;;;;;;;7.55;4.13;;;;;;;15.46;71.24;100596.38;4992313;28;20411;-84
2021/09/12 04:29:14;;;;;;;4.00;3.67;;;;;;;15.47;71.34;100600.75;5001056;28;20411;-83
2021/09/12 04:31:39;;;;;;;6.50;4.10;;;;;;;15.49;71.68;100590.38;4997553;28;20425;-83
2021/09/12 04:34:04;;;;;;;4.40;3.83;;;;;;;15.50;71.58;100600.22;5009433;28;20932;-84
2021/09/12 04:36:29;;;;;;;5.77;3.00;;;;;;;15.48;71.70;100596.94;4997922;28;20403;-83
2021/09/12 04:38:55;;;;;;;2.67;2.55;;;;;;;15.52;71.35;100603.50;5003786;28;20406;-84
2021/09/12 04:41:20;;;;;;;2.83;2.60;;;;;;;15.50;71.87;100606.50;5001796;28;20768;-83
2021/09/12 04:43:45;;;;;;;3.47;3.17;;;;;;;15.49;72.05;100595.84;4995761;28;20402;-84
2021/09/12 04:46:11;;;;;;;4.10;3.27;;;;;;;15.48;72.14;100605.13;5013215;28;20402;-83
2021/09/12 04:48:36;;;;;;;3.63;3.33;;;;;;;15.47;72.58;100598.00;4997757;28;20406;-83
2021/09/12 04:51:02;;;;;;;4.93;3.58;;;;;;;15.50;72.47;100602.94;4999908;28;20414;-84
2021/09/12 04:53:27;;;;;;;9.47;3.90;;;;;;;15.48;72.69;100603.22;5005481;28;20391;-84
2021/09/12 04:55:52;;;;;;;5.30;3.90;;;;;;;15.47;72.43;100604.28;4992077;28;21121;-83
2021/09/12 04:58:17;;;;;;;134.77;9.37;;;;;;;15.47;72.11;100604.28;5000596;28;20458;-83
2021/09/12 05:00:43;;;;;;;3.90;3.63;;;;;;;15.47;72.07;100606.19;5007296;28;20416;-83
2021/09/12 05:03:08;;;;;;;5.82;3.97;;;;;;;15.48;72.17;100602.38;4998953;28;20409;-83
2021/09/12 05:05:33;;;;;;;5.33;3.83;;;;;;;15.46;72.30;100599.91;5007223;28;20462;-83
2021/09/12 05:07:59;;;;;;;5.07;4.10;;;;;;;15.47;71.90;100603.47;5005654;28;20399;-83
2021/09/12 05:10:24;;;;;;;5.27;3.90;;;;;;;15.47;71.14;100606.19;5012733;28;20414;-83
2021/09/12 05:12:49;;;;;;;4.20;3.80;;;;;;;15.47;70.64;100608.94;4994601;28;20417;-81
2021/09/12 05:15:15;;;;;;;3.90;3.60;;;;;;;15.40;70.94;100609.22;4996037;28;20418;-83
2021/09/12 05:17:40;;;;;;;5.67;4.27;;;;;;;15.38;71.29;100614.09;5020357;28;20402;-84
2021/09/12 05:20:06;;;;;;;4.20;3.83;;;;;;;15.37;71.36;100612.50;4999238;28;20433;-83
2021/09/12 05:22:32;;;;;;;11.27;3.80;;;;;;;15.39;71.21;100609.47;5010179;28;20407;-83
2021/09/12 05:24:57;;;;;;;5.63;4.17;;;;;;;15.41;70.98;100604.56;5006863;28;20421;-83
2021/09/12 05:27:23;;;;;;;5.73;4.20;;;;;;;15.42;70.69;100600.72;4998613;28;20926;-83
2021/09/12 05:29:48;;;;;;;5.85;4.65;;;;;;;15.42;70.68;100612.47;4997872;28;20472;-84
2021/09/12 05:32:14;;;;;;;6.77;4.20;;;;;;;15.44;70.45;100606.75;5005971;28;20436;-83
2021/09/12 05:34:39;;;;;;;8.73;4.70;;;;;;;15.44;70.08;100617.69;5006790;28;20413;-83
2021/09/12 05:37:05;;;;;;;5.50;5.00;;;;;;;15.45;70.36;100614.66;5000444;28;20401;-83
2021/09/12 05:39:30;;;;;;;5.05;4.55;;;;;;;15.45;70.15;100622.03;5006166;28;20454;-83
2021/09/12 05:41:55;;;;;;;7.10;4.67;;;;;;;15.46;70.60;100623.69;5002514;28;20414;-83
2021/09/12 05:44:21;;;;;;;4.97;3.83;;;;;;;15.45;70.74;100622.84;4999004;28;20400;-83
2021/09/12 05:46:47;;;;;;;6.07;4.85;;;;;;;15.44;71.04;100618.47;5000921;28;20410;-83
2021/09/12 05:49:13;;;;;;;4.90;4.50;;;;;;;15.47;71.33;100620.69;5003897;28;20401;-84
2021/09/12 05:51:38;;;;;;;4.33;4.10;;;;;;;15.50;71.71;100620.16;5019033;28;20741;-84
2021/09/12 05:54:03;;;;;;;5.07;4.68;;;;;;;15.53;71.84;100619.63;5010742;28;20884;-84
2021/09/12 05:56:29;;;;;;;5.30;4.50;;;;;;;15.56;71.67;100616.34;4997971;28;20480;-84
2021/09/12 05:58:54;;;;;;;6.10;4.23;;;;;;;15.61;71.93;100622.91;5008802;28;20884;-84
2021/09/12 06:01:19;;;;;;;7.13;5.40;;;;;;;15.68;72.48;100620.69;5004681;28;20465;-84
2021/09/12 06:03:46;;;;;;;4.73;3.73;;;;;;;15.74;72.69;100616.88;4999794;28;20485;-84
2021/09/12 06:06:11;;;;;;;7.77;7.37;;;;;;;15.80;72.85;100626.69;5008356;28;20895;-84
2021/09/12 06:08:36;;;;;;;14.87;14.07;;;;;;;15.83;73.16;100624.25;5006786;28;20476;-84
2021/09/12 06:11:01;;;;;;;19.10;18.10;;;;;;;15.86;73.24;100628.31;5009026;28;20924;-84
2021/09/12 06:13:27;;;;;;;9.37;8.87;;;;;;;15.93;73.57;100628.88;5001434;28;20762;-84
2021/09/12 06:15:52;;;;;;;4.70;4.30;;;;;;;15.98;73.38;100628.84;5002079;28;20432;-84
2021/09/12 06:18:18;;;;;;;4.63;3.70;;;;;;;16.04;73.36;100622.28;5000833;28;20789;-82
2021/09/12 06:20:43;;;;;;;3.83;3.50;;;;;;;16.11;73.15;100617.34;4998326;28;20469;-84
2021/09/12 06:23:09;;;;;;;3.63;3.42;;;;;;;16.17;73.28;100629.09;5006139;28;20440;-84
2021/09/12 06:25:34;;;;;;;3.97;3.20;;;;;;;16.24;73.61;100624.13;5009047;28;20807;-84
2021/09/12 06:27:59;;;;;;;3.40;3.20;;;;;;;16.26;73.38;100625.50;5012416;28;20814;-84
2021/09/12 06:30:25;;;;;;;4.53;3.67;;;;;;;16.32;73.43;100629.03;5003768;28;20407;-85
2021/09/12 06:32:50;;;;;;;4.17;3.07;;;;;;;16.36;73.21;100625.47;5000382;28;20457;-85
2021/09/12 06:35:16;;;;;;;7.53;3.47;;;;;;;16.42;73.11;100626.28;5030481;28;21120;-85
2021/09/12 06:37:43;;;;;;;3.40;3.08;;;;;;;16.42;73.33;100629.00;5012692;28;21459;-85
2021/09/12 06:40:09;;;;;;;3.37;3.07;;;;;;;16.39;73.66;100635.03;5008080;28;20531;-85
2021/09/12 06:42:34;;;;;;;7.22;4.85;;;;;;;16.33;73.80;100633.41;5012842;28;20442;-85
2021/09/12 06:45:00;;;;;;;3.67;3.37;;;;;;;16.30;73.88;100631.25;5013185;28;20401;-84
2021/09/12 06:47:25;;;;;;;4.50;4.20;;;;;;;16.28;73.83;100628.78;5003061;28;20891;-85
2021/09/12 06:49:51;;;;;;;7.97;7.43;;;;;;;16.30;74.29;100636.72;5003042;28;20397;-85
2021/09/12 06:52:17;;;;;;;18.07;17.03;;;;;;;16.36;74.62;100636.41;5006899;28;20408;-85
2021/09/12 06:54:42;;;;;;;16.17;15.02;;;;;;;16.38;74.56;100634.22;5006236;28;20412;-84
2021/09/12 06:57:08;;;;;;;4.22;3.88;;;;;;;16.37;74.54;100638.03;5001836;28;20473;-84
2021/09/12 06:59:34;;;;;;;7.17;6.83;;;;;;;16.38;74.69;100636.94;4991759;28;20425;-84
2021/09/12 07:01:59;;;;;;;16.40;15.50;;;;;;;16.45;74.94;100633.91;5007181;28;20495;-85
2021/09/12 07:04:25;;;;;;;11.40;10.85;;;;;;;16.49;74.86;100635.00;5007228;28;20965;-83
2021/09/12 07:06:50;;;;;;;19.50;18.40;;;;;;;16.56;74.90;100639.09;5025182;28;20455;-83
2021/09/12 07:09:15;;;;;;;10.00;9.20;;;;;;;16.61;74.67;100638.25;5007897;28;20499;-84
2021/09/12 07:11:41;;;;;;;10.07;9.47;;;;;;;16.65;74.60;100636.59;4999496;28;20438;-84
2021/09/12 07:14:06;;;;;;;7.13;6.83;;;;;;;16.67;74.59;100639.03;5004116;28;20462;-80
2021/09/12 07:16:33;;;;;;;15.70;14.85;;;;;;;16.66;74.83;100638.25;5005297;28;20681;-78
2021/09/12 07:18:58;;;;;;;5.03;3.10;;;;;;;16.62;74.66;100641.81;5008436;28;20414;-83
2021/09/12 07:21:24;;;;;;;4.07;3.67;;;;;;;16.66;75.04;100643.72;5004705;28;20409;-81
2021/09/12 07:23:49;;;;;;;3.10;2.97;;;;;;;16.76;74.57;100646.38;5008469;28;20410;-81
2021/09/12 07:26:14;;;;;;;3.00;2.80;;;;;;;16.80;74.21;100649.38;5000648;28;20881;-81
2021/09/12 07:28:39;;;;;;;2.70;2.60;;;;;;;16.84;74.28;100655.94;5008940;28;20463;-81
2021/09/12 07:31:05;;;;;;;3.20;2.50;;;;;;;16.89;74.49;100650.44;5005010;28;20920;-81
2021/09/12 07:33:30;;;;;;;2.63;2.43;;;;;;;16.92;74.17;100649.88;5006540;28;20461;-81
2021/09/12 07:35:55;;;;;;;2.57;2.30;;;;;;;16.96;74.40;100659.97;5004021;28;20435;-82
2021/09/12 07:38:20;;;;;;;2.30;2.20;;;;;;;16.97;73.76;100649.84;5004607;28;20551;-82
2021/09/12 07:40:46;;;;;;;2.83;2.60;;;;;;;17.03;74.08;100643.22;5003650;28;20448;-82
2021/09/12 07:43:11;;;;;;;5.43;2.47;;;;;;;17.11;74.33;100651.69;4998160;28;20908;-82
2021/09/12 07:45:37;;;;;;;3.23;2.63;;;;;;;17.18;74.46;100648.63;5015123;28;20458;-81
2021/09/12 07:48:02;;;;;;;2.43;2.23;;;;;;;17.22;74.14;100646.97;5001720;28;20421;-82
2021/09/12 07:50:27;;;;;;;2.40;2.23;;;;;;;17.27;74.22;100646.09;5005005;28;20508;-81
2021/09/12 07:52:53;;;;;;;2.57;2.37;;;;;;;17.28;74.11;100654.03;4994061;28;20421;-81
2021/09/12 07:55:18;;;;;;;2.63;2.43;;;;;;;17.31;74.37;100652.66;4994844;28;20907;-81
2021/09/12 07:57:43;;;;;;;3.92;2.20;;;;;;;17.33;74.20;100661.41;5004010;28;20420;-81
2021/09/12 08:00:10;;;;;;;2.27;1.93;;;;;;;17.37;73.88;100655.06;5008073;28;20819;-80
2021/09/12 08:02:35;;;;;;;3.00;1.90;;;;;;;17.45;73.48;100659.13;5004128;28;20402;-81
2021/09/12 08:05:01;;;;;;;3.27;2.50;;;;;;;17.55;73.58;100659.06;5008797;28;20907;-81
2021/09/12 08:07:26;;;;;;;3.80;1.70;;;;;;;17.60;73.43;100662.59;5011261;28;20404;-81
2021/09/12 08:09:51;;;;;;;2.38;1.80;;;;;;;17.65;73.43;100661.72;5026693;28;20400;-81
2021/09/12 08:12:17;;;;;;;1.80;1.70;;;;;;;17.69;72.89;100654.56;4998817;28;20408;-81
2021/09/12 08:14:42;;;;;;;2.05;1.88;;;;;;;17.76;72.79;100665.19;5000011;28;20458;-80
2021/09/12 08:17:08;;;;;;;3.00;2.07;;;;;;;17.81;73.35;100662.44;4996369;28;20928;-81
2021/09/12 08:19:33;;;;;;;2.17;2.00;;;;;;;17.87;73.24;100670.31;5016538;28;20799;-80
2021/09/12 08:21:59;;;;;;;2.07;2.00;;;;;;;17.95;73.17;100655.97;5003218;28;20495;-81
2021/09/12 08:24:24;;;;;;;2.03;1.93;;;;;;;18.03;72.53;100662.78;5014891;28;20736;-81
2021/09/12 08:26:49;;;;;;;1.60;1.60;;;;;;;18.10;72.78;100668.72;5014449;28;20405;-81
2021/09/12 08:29:15;;;;;;;1.73;1.63;;;;;;;18.18;72.19;100661.81;5003994;28;20412;-80
2021/09/12 08:31:40;;;;;;;2.23;1.73;;;;;;;18.24;71.72;100658.72;5005466;28;20920;-81
2021/09/12 08:34:05;;;;;;;2.10;2.00;;;;;;;18.30;72.27;100662.22;5002905;28;20499;-81
2021/09/12 08:36:31;;;;;;;1.97;1.60;;;;;;;18.33;72.18;100658.88;5001540;28;20784;-81
2021/09/12 08:38:56;;;;;;;4.43;2.40;;;;;;;18.38;71.98;100658.81;4995915;28;20533;-81
2021/09/12 08:41:22;;;;;;;1.93;1.83;;;;;;;18.42;71.94;100660.69;5003497;28;20428;-81
2021/09/12 08:43:48;;;;;;;2.30;2.10;;;;;;;18.48;71.55;100661.44;5011221;28;20471;-80
2021/09/12 08:46:15;;;;;;;2.35;1.77;;;;;;;18.50;70.43;100660.09;5005331;28;20433;-81
2021/09/12 08:48:40;;;;;;;1.75;1.67;;;;;;;18.55;70.38;100654.53;5002364;28;20401;-81
2021/09/12 08:51:06;;;;;;;4.07;2.53;;;;;;;18.67;70.29;100656.06;5007772;28;20811;-81
2021/09/12 08:53:31;;;;;;;4.33;2.27;;;;;;;18.74;69.70;100653.78;5000871;28;20440;-81
2021/09/12 08:55:57;;;;;;;1.70;1.60;;;;;;;18.83;69.38;100660.25;5006415;28;20451;-81
2021/09/12 08:58:24;;;;;;;3.90;1.83;;;;;;;18.93;70.09;100655.44;4999961;28;20405;-81
2021/09/12 09:00:49;;;;;;;2.40;2.20;;;;;;;19.08;69.91;100657.97;5005185;28;20410;-81
2021/09/12 09:03:14;;;;;;;2.33;1.93;;;;;;;19.23;69.09;100653.38;5009074;28;20827;-80
2021/09/12 09:05:42;;;;;;;1.77;1.67;;;;;;;19.36;68.55;100647.13;5004367;28;20448;-81
2021/09/12 09:08:10;;;;;;;2.45;2.00;;;;;;;19.62;67.63;100651.13;5002240;28;20462;-81
2021/09/12 09:10:42;;;;;;;3.78;1.70;;;;;;;19.91;67.51;100654.47;5011497;28;20401;-81
2021/09/12 09:13:27;;;;;;;2.15;1.70;;;;;;;20.08;66.04;100656.66;5003946;28;20408;-81
2021/09/12 09:15:52;;;;;;;2.10;2.00;;;;;;;20.27;65.41;100654.66;5003961;28;20770;-81
2021/09/12 09:18:29;;;;;;;1.77;1.67;;;;;;;20.39;64.85;100660.47;4993315;28;20421;-81
2021/09/12 09:20:54;;;;;;;3.22;2.08;;;;;;;20.49;64.55;100648.44;5003585;28;20430;-81
2021/09/12 09:23:20;;;;;;;3.20;1.80;;;;;;;20.74;64.30;100650.69;4996996;28;20450;-81
2021/09/12 09:25:46;;;;;;;4.53;1.90;;;;;;;21.02;62.44;100652.28;5006167;28;20760;-82
2021/09/12 09:28:12;;;;;;;2.45;1.70;;;;;;;21.28;61.27;100646.22;5015329;28;20503;-81
2021/09/12 09:30:46;;;;;;;2.00;1.80;;;;;;;21.82;59.70;100645.16;5006988;28;20401;-81
2021/09/12 09:33:22;;;;;;;1.50;1.30;;;;;;;22.22;58.56;100646.88;5010675;28;20397;-81
2021/09/12 09:35:54;;;;;;;1.30;1.30;;;;;;;22.67;56.44;100639.28;5001999;28;20465;-81
2021/09/12 09:38:21;;;;;;;2.25;1.52;;;;;;;23.10;55.48;100637.41;5007264;28;20472;-81
2021/09/12 09:40:59;;;;;;;1.70;1.60;;;;;;;23.45;53.00;100643.78;5007996;28;20492;-81
2021/09/12 09:43:38;;;;;;;5.57;1.50;;;;;;;23.95;51.15;100635.72;5008944;28;20402;-81
2021/09/12 09:46:04;;;;;;;1.40;1.30;;;;;;;24.56;49.08;100637.16;5004711;28;20751;-81
2021/09/12 09:48:34;;;;;;;1.20;1.10;;;;;;;25.12;47.86;100635.88;5000622;28;20408;-81
2021/09/12 09:51:03;;;;;;;2.65;1.20;;;;;;;25.80;45.37;100647.53;4999765;28;20444;-81
2021/09/12 09:53:34;;;;;;;1.73;1.50;;;;;;;26.44;44.05;100636.69;5008428;28;20903;-82
2021/09/12 09:56:00;;;;;;;2.72;1.33;;;;;;;26.85;44.86;100645.97;5002943;28;20474;-82
2021/09/12 09:58:26;;;;;;;1.35;1.25;;;;;;;27.33;43.54;100629.19;5000987;28;20485;-82
2021/09/12 10:00:51;;;;;;;2.63;1.30;;;;;;;27.76;42.04;100632.03;5017200;28;20411;-82
2021/09/12 10:03:17;;;;;;;2.20;1.57;;;;;;;28.19;40.61;100636.78;5008005;28;20406;-82
2021/09/12 10:05:43;;;;;;;3.33;1.30;;;;;;;28.69;38.70;100627.72;4999341;28;21166;-82
2021/09/12 10:08:09;;;;;;;1.80;0.87;;;;;;;29.10;37.15;100631.84;5000362;28;20501;-83
2021/09/12 10:10:34;;;;;;;1.90;0.70;;;;;;;29.75;35.25;100634.81;5014870;28;20409;-82
2021/09/12 10:13:02;;;;;;;1.13;0.80;;;;;;;30.21;33.73;100627.31;5008257;28;20501;-82
2021/09/12 10:15:31;;;;;;;0.80;0.80;;;;;;;30.46;33.18;100624.97;5002713;28;20426;-82
2021/09/12 10:17:58;;;;;;;0.80;0.73;;;;;;;30.80;33.61;100630.31;5026921;28;20750;-82
2021/09/12 10:20:26;;;;;;;0.88;0.63;;;;;;;31.38;31.11;100636.34;4995645;28;20402;-82
2021/09/12 10:22:56;;;;;;;0.98;0.80;;;;;;;32.05;30.15;100630.75;5010020;28;20900;-82
2021/09/12 10:25:27;;;;;;;1.38;0.98;;;;;;;32.76;28.95;100631.38;5003278;28;20764;-83
2021/09/12 10:28:04;;;;;;;0.82;0.82;;;;;;;31.96;30.18;100635.84;5005534;28;20957;-82
2021/09/12 10:30:33;;;;;;;1.10;0.70;;;;;;;30.70;32.06;100638.53;5004908;28;20397;-82
2021/09/12 10:33:05;;;;;;;0.70;0.60;;;;;;;31.93;29.52;100624.59;4999785;28;20434;-82
2021/09/12 10:35:36;;;;;;;0.93;0.77;;;;;;;32.46;28.66;100620.31;5004723;28;20478;-82
2021/09/12 10:38:08;;;;;;;0.60;0.60;;;;;;;32.74;26.99;100617.72;5004956;28;20410;-82
2021/09/12 10:40:46;;;;;;;3.30;0.90;;;;;;;33.31;26.95;100618.06;5004815;28;20424;-82
2021/09/12 10:43:23;;;;;;;2.72;0.77;;;;;;;33.39;27.98;100623.31;5002371;28;20739;-83
2021/09/12 10:45:49;;;;;;;1.73;0.73;;;;;;;33.29;27.43;100618.50;5016239;28;20428;-83
2021/09/12 10:48:20;;;;;;;1.83;1.10;;;;;;;33.57;27.11;100616.97;5011627;28;20432;-82
2021/09/12 10:50:46;;;;;;;0.80;0.77;;;;;;;33.81;26.20;100613.47;5001725;28;20412;-82
2021/09/12 10:53:11;;;;;;;1.33;0.70;;;;;;;33.86;27.10;100601.81;5001307;28;20928;-82
2021/09/12 10:55:59;;;;;;;2.20;0.80;;;;;;;33.62;27.77;100613.81;4997325;28;20418;-83
2021/09/12 10:58:32;;;;;;;1.05;0.75;;;;;;;33.26;27.58;100604.44;5001417;28;20977;-83
2021/09/12 11:00:59;;;;;;;0.70;0.60;;;;;;;32.95;27.48;100607.84;5012311;28;20806;-82
2021/09/12 11:03:25;;;;;;;1.60;0.90;;;;;;;32.86;27.88;100605.38;5006682;28;20460;-82
2021/09/12 11:05:51;;;;;;;1.75;0.70;;;;;;;32.43;29.07;100609.88;5004364;28;20446;-83
2021/09/12 11:08:16;;;;;;;0.73;0.70;;;;;;;31.70;29.77;100602.34;5007937;28;20441;-82
2021/09/12 11:10:47;;;;;;;0.80;0.73;;;;;;;31.34;30.81;100598.28;5005295;28;20496;-82
2021/09/12 11:13:33;;;;;;;0.73;0.73;;;;;;;31.41;31.22;100609.59;5002499;28;20973;-82
2021/09/12 11:16:05;;;;;;;1.35;0.80;;;;;;;31.43;30.76;100606.38;5001710;28;20527;-82
2021/09/12 11:18:43;;;;;;;1.45;0.80;;;;;;;31.40;30.88;100599.56;5003915;28;20408;-82
2021/09/12 11:21:08;;;;;;;0.70;0.70;;;;;;;31.63;30.93;100597.47;5039461;28;20401;-82